Time;durP1;ratioP1;P1;durP2;ratioP2;P2;SDS_P1;SDS_P2;PMS_P1;PMS_P2;Temp;Humidity;BMP_temperature;BMP_pressure;BME280_temperature;BME280_humidity;BME280_pressure;Samples;Min_cycle;Max_cycle;Signal;HPM_P1;HPM_P2
2021/07/10 00:01:11;;;;;;;5.45;3.80;;;15.40;99.90;;;;;;5013995;28;20045;-84
2021/07/10 00:03:39;;;;;;;5.10;4.47;;;15.40;99.90;;;;;;5014354;28;20513;-84
2021/07/10 00:06:06;;;;;;;7.80;4.25;;;15.40;99.90;;;;;;5000450;28;20045;-85
2021/07/10 00:08:34;;;;;;;5.03;4.18;;;15.40;99.90;;;;;;4998139;28;20045;-85
2021/07/10 00:11:02;;;;;;;7.93;4.45;;;15.30;99.90;;;;;;4999315;28;20045;-85
2021/07/10 00:13:29;;;;;;;6.85;4.30;;;15.30;99.90;;;;;;5022669;28;20533;-85
2021/07/10 00:15:57;;;;;;;5.70;3.97;;;15.30;99.90;;;;;;5029849;28;20077;-85
2021/07/10 00:18:24;;;;;;;5.65;4.40;;;15.30;99.90;;;;;;5011551;28;20499;-85
2021/07/10 00:20:51;;;;;;;7.28;4.32;;;15.30;99.90;;;;;;5014590;28;20054;-85
2021/07/10 00:23:19;;;;;;;7.05;4.75;;;15.30;99.90;;;;;;5011835;28;20491;-84
2021/07/10 00:25:46;;;;;;;10.27;4.47;;;15.30;99.90;;;;;;5011413;28;20052;-85
2021/07/10 00:28:13;;;;;;;6.38;3.80;;;15.30;99.90;;;;;;5015338;28;20057;-85
2021/07/10 00:30:40;;;;;;;6.45;4.80;;;15.20;99.90;;;;;;5016841;28;20053;-84
2021/07/10 00:33:07;;;;;;;7.00;4.50;;;15.30;99.90;;;;;;5011326;28;20491;-84
2021/07/10 00:35:36;;;;;;;7.35;4.28;;;15.20;99.90;;;;;;4995324;28;20181;-84
2021/07/10 00:38:03;;;;;;;8.15;4.75;;;15.20;99.90;;;;;;5026784;28;20049;-84
2021/07/10 00:40:30;;;;;;;8.02;4.60;;;15.30;99.90;;;;;;5024674;28;20049;-85
2021/07/10 00:42:57;;;;;;;6.40;3.33;;;15.30;99.90;;;;;;5035115;28;20049;-85
2021/07/10 00:45:24;;;;;;;5.90;3.53;;;15.30;99.90;;;;;;5015560;28;20053;-84
2021/07/10 00:47:51;;;;;;;5.13;3.03;;;15.30;99.90;;;;;;5012473;28;20084;-84
2021/07/10 00:50:22;;;;;;;5.00;3.33;;;15.30;99.90;;;;;;5042741;28;20056;-84
2021/07/10 00:52:50;;;;;;;5.28;3.60;;;15.30;99.90;;;;;;5019917;28;20410;-84
2021/07/10 00:55:18;;;;;;;6.03;3.42;;;15.30;99.90;;;;;;5028230;28;20059;-85
2021/07/10 00:57:46;;;;;;;4.88;3.80;;;15.30;99.90;;;;;;5019748;28;20471;-84
2021/07/10 01:00:19;;;;;;;6.95;3.97;;;15.30;99.90;;;;;;5028975;28;20480;-84
2021/07/10 01:02:51;;;;;;;5.03;3.85;;;15.30;99.90;;;;;;5013239;28;20041;-84
2021/07/10 01:05:30;;;;;;;5.55;3.60;;;15.30;99.90;;;;;;5012613;28;20049;-84
2021/07/10 01:07:58;;;;;;;7.70;3.60;;;15.30;99.90;;;;;;5013764;28;20056;-85
2021/07/10 01:10:25;;;;;;;5.40;3.25;;;15.30;99.90;;;;;;5029951;28;20483;-84
2021/07/10 01:12:54;;;;;;;7.00;3.40;;;15.30;99.90;;;;;;5012660;28;20447;-85
2021/07/10 01:15:23;;;;;;;6.63;4.32;;;15.30;99.90;;;;;;5010771;28;20045;-84
2021/07/10 01:17:53;;;;;;;7.30;4.47;;;15.30;99.90;;;;;;5028228;28;20675;-85
2021/07/10 01:20:22;;;;;;;5.70;4.18;;;15.30;99.90;;;;;;5005769;28;20038;-85
2021/07/10 01:22:50;;;;;;;8.40;5.20;;;15.30;99.90;;;;;;5012503;28;20372;-85
2021/07/10 01:25:21;;;;;;;10.18;4.55;;;15.30;99.90;;;;;;5014157;28;20100;-84
2021/07/10 01:27:51;;;;;;;7.68;4.75;;;15.30;99.90;;;;;;5010871;28;20553;-84
2021/07/10 01:30:20;;;;;;;8.35;4.65;;;15.30;99.90;;;;;;5011542;28;20046;-85
2021/07/10 01:32:51;;;;;;;8.77;4.78;;;15.30;99.90;;;;;;5011714;28;20076;-85
2021/07/10 01:35:19;;;;;;;7.75;4.30;;;15.30;99.90;;;;;;5012412;28;20049;-85
2021/07/10 01:37:46;;;;;;;8.40;5.20;;;15.30;99.90;;;;;;5014461;28;20467;-84
2021/07/10 01:40:16;;;;;;;7.90;4.90;;;15.30;99.90;;;;;;5033193;28;20442;-85
2021/07/10 01:42:43;;;;;;;8.68;5.25;;;15.30;99.90;;;;;;5013180;28;20595;-84
2021/07/10 01:45:12;;;;;;;9.30;4.63;;;15.30;99.90;;;;;;5011643;28;20045;-85
2021/07/10 01:47:39;;;;;;;9.02;4.60;;;15.30;99.90;;;;;;5014160;28;20402;-84
2021/07/10 01:50:08;;;;;;;6.85;4.10;;;15.30;99.90;;;;;;5033392;28;20056;-85
2021/07/10 01:52:37;;;;;;;9.18;4.32;;;15.30;99.90;;;;;;5028847;28;20041;-84
2021/07/10 01:55:07;;;;;;;7.90;4.25;;;15.30;99.90;;;;;;5022367;28;20061;-84
2021/07/10 01:57:34;;;;;;;7.85;4.35;;;15.30;99.90;;;;;;5018179;28;20076;-84
2021/07/10 02:00:09;;;;;;;9.20;4.60;;;15.30;99.90;;;;;;5026499;28;20049;-85
2021/07/10 02:02:38;;;;;;;7.78;4.38;;;15.30;99.90;;;;;;5017026;28;20041;-84
2021/07/10 02:05:05;;;;;;;9.13;3.90;;;15.30;99.90;;;;;;5020216;28;20053;-84
2021/07/10 02:07:33;;;;;;;7.10;3.25;;;15.30;99.90;;;;;;5021252;28;20033;-84
2021/07/10 02:10:02;;;;;;;5.35;3.40;;;15.30;99.90;;;;;;5021885;28;20045;-84
2021/07/10 02:12:29;;;;;;;6.03;3.17;;;15.30;99.90;;;;;;5027638;28;20069;-85
2021/07/10 02:14:56;;;;;;;4.32;2.78;;;15.30;99.90;;;;;;5014500;28;20055;-85
2021/07/10 02:17:23;;;;;;;4.15;2.63;;;15.30;99.90;;;;;;5031874;28;20168;-85
2021/07/10 02:19:50;;;;;;;3.95;2.40;;;15.40;99.90;;;;;;5019979;28;20053;-85
2021/07/10 02:22:17;;;;;;;4.78;2.75;;;15.40;99.90;;;;;;5020002;28;20049;-85
2021/07/10 02:24:44;;;;;;;6.65;3.10;;;15.40;99.90;;;;;;5018397;28;20072;-84
2021/07/10 02:27:11;;;;;;;5.45;2.28;;;15.40;99.90;;;;;;5015315;28;20045;-84
2021/07/10 02:29:38;;;;;;;3.47;2.40;;;15.40;99.90;;;;;;5012843;28;20041;-84
2021/07/10 02:32:06;;;;;;;5.15;2.20;;;15.40;99.90;;;;;;5023286;28;20053;-84
2021/07/10 02:34:33;;;;;;;4.95;2.30;;;15.40;99.90;;;;;;5026418;28;20073;-84
2021/07/10 02:37:00;;;;;;;4.03;2.30;;;15.40;99.90;;;;;;5004128;28;20053;-84
2021/07/10 02:39:28;;;;;;;3.10;2.25;;;15.40;99.90;;;;;;5045556;28;20052;-85
2021/07/10 02:41:55;;;;;;;3.60;2.50;;;15.40;99.90;;;;;;5032130;28;20057;-84
2021/07/10 02:44:22;;;;;;;3.25;2.42;;;15.40;99.90;;;;;;5015655;28;20050;-84
2021/07/10 02:46:49;;;;;;;2.55;2.25;;;15.40;99.90;;;;;;5017907;28;20041;-85
2021/07/10 02:49:16;;;;;;;2.00;1.75;;;15.50;99.90;;;;;;5036646;28;20061;-85
2021/07/10 02:51:43;;;;;;;4.20;2.40;;;15.50;99.90;;;;;;5025275;28;20479;-85
2021/07/10 02:54:10;;;;;;;4.15;2.03;;;15.50;99.90;;;;;;5019703;28;20050;-84
2021/07/10 02:56:37;;;;;;;4.03;2.80;;;15.50;99.90;;;;;;5030332;28;20530;-84
2021/07/10 02:59:04;;;;;;;3.80;2.67;;;15.50;99.90;;;;;;5014880;28;20060;-84
2021/07/10 03:01:31;;;;;;;4.60;2.30;;;15.50;99.90;;;;;;5011986;28;20376;-84
2021/07/10 03:03:59;;;;;;;4.60;2.58;;;15.50;99.90;;;;;;5010346;28;20045;-84
2021/07/10 03:06:26;;;;;;;3.53;2.40;;;15.50;99.90;;;;;;5011142;28;20425;-85
2021/07/10 03:08:53;;;;;;;3.30;2.38;;;15.50;99.90;;;;;;5014919;28;20053;-84
2021/07/10 03:11:20;;;;;;;4.25;2.40;;;15.50;99.90;;;;;;5015009;28;20049;-84
2021/07/10 03:13:47;;;;;;;16.17;2.78;;;15.50;99.90;;;;;;5009663;28;20041;-85
2021/07/10 03:16:14;;;;;;;3.55;2.17;;;15.50;99.90;;;;;;5011406;28;20059;-85
2021/07/10 03:18:41;;;;;;;3.88;2.47;;;15.40;99.90;;;;;;5029434;28;20050;-85
2021/07/10 03:21:08;;;;;;;4.47;2.45;;;15.40;99.90;;;;;;5032069;28;20044;-85
2021/07/10 03:23:37;;;;;;;3.88;2.28;;;15.40;99.90;;;;;;4998250;28;20045;-85
2021/07/10 03:26:04;;;;;;;4.18;2.33;;;15.40;99.90;;;;;;5030048;28;20049;-85
2021/07/10 03:28:31;;;;;;;5.15;2.88;;;15.40;99.90;;;;;;5012078;28;20048;-84
2021/07/10 03:30:58;;;;;;;6.25;3.55;;;15.40;99.90;;;;;;5016739;28;20053;-85
2021/07/10 03:33:25;;;;;;;6.20;3.08;;;15.30;99.90;;;;;;5002436;28;20041;-84
2021/07/10 03:35:52;;;;;;;5.00;3.65;;;15.30;99.90;;;;;;5009412;28;20526;-85
2021/07/10 03:38:19;;;;;;;8.10;4.35;;;15.30;99.90;;;;;;5029244;28;20136;-84
2021/07/10 03:40:46;;;;;;;8.90;4.78;;;15.30;99.90;;;;;;5016260;28;20076;-85
2021/07/10 03:43:14;;;;;;;11.23;4.57;;;15.30;99.90;;;;;;5017698;28;20476;-84
2021/07/10 03:45:41;;;;;;;9.00;5.38;;;15.20;99.90;;;;;;5018707;28;20045;-84
2021/07/10 03:48:08;;;;;;;11.43;5.35;;;15.30;99.90;;;;;;5013531;28;20059;-84
2021/07/10 03:50:35;;;;;;;9.40;5.15;;;15.30;99.90;;;;;;5018969;28;20461;-85
2021/07/10 03:53:03;;;;;;;14.15;6.35;;;15.30;99.90;;;;;;5031053;28;20041;-84
2021/07/10 03:55:31;;;;;;;11.13;5.43;;;15.30;99.90;;;;;;5012398;28;20057;-85
2021/07/10 03:57:58;;;;;;;9.90;5.40;;;15.20;99.90;;;;;;5012980;28;20103;-85
2021/07/10 04:00:25;;;;;;;10.77;5.78;;;15.20;99.90;;;;;;5011753;28;20919;-85
2021/07/10 04:02:52;;;;;;;14.68;6.05;;;15.20;99.90;;;;;;5014297;28;20049;-85
2021/07/10 04:05:19;;;;;;;13.85;6.43;;;15.20;99.90;;;;;;5013327;28;20045;-85
2021/07/10 04:07:46;;;;;;;15.13;6.75;;;15.20;99.90;;;;;;5027884;28;20040;-85
2021/07/10 04:10:14;;;;;;;12.30;6.15;;;15.20;99.90;;;;;;5019513;28;20049;-85
2021/07/10 04:12:43;;;;;;;8.35;5.88;;;15.20;99.90;;;;;;5016294;28;20053;-84
2021/07/10 04:15:13;;;;;;;12.48;5.38;;;15.20;99.90;;;;;;5040253;28;20519;-84
2021/07/10 04:17:40;;;;;;;11.75;5.95;;;15.20;99.90;;;;;;5020064;28;20048;-84
2021/07/10 04:20:08;;;;;;;10.77;5.22;;;15.20;99.90;;;;;;5016513;28;20411;-85
2021/07/10 04:22:36;;;;;;;12.48;5.82;;;15.10;99.90;;;;;;5030527;28;20364;-85
2021/07/10 04:25:09;;;;;;;15.00;5.75;;;15.10;99.90;;;;;;5020798;28;20064;-85
2021/07/10 04:27:38;;;;;;;9.43;6.05;;;15.10;99.90;;;;;;5015578;28;20498;-85
2021/07/10 04:30:07;;;;;;;10.80;5.85;;;15.00;99.90;;;;;;5012883;28;21467;-84
2021/07/10 04:32:34;;;;;;;11.65;6.28;;;15.00;99.90;;;;;;5018836;28;20387;-84
2021/07/10 04:35:02;;;;;;;10.05;6.03;;;15.00;99.90;;;;;;5038701;28;20403;-85
2021/07/10 04:37:29;;;;;;;14.75;6.38;;;15.00;99.90;;;;;;5011288;28;20037;-85
2021/07/10 04:39:56;;;;;;;15.15;6.88;;;15.00;99.90;;;;;;5017851;28;20041;-85
2021/07/10 04:42:24;;;;;;;12.13;6.10;;;15.00;99.90;;;;;;5024732;28;21949;-85
2021/07/10 04:44:51;;;;;;;14.65;6.40;;;15.00;99.90;;;;;;5013238;28;20060;-85
2021/07/10 04:47:21;;;;;;;12.43;5.97;;;15.00;99.90;;;;;;5012617;28;20042;-85
2021/07/10 04:49:48;;;;;;;14.68;6.25;;;15.00;99.90;;;;;;5012784;28;20051;-84
2021/07/10 04:52:15;;;;;;;14.50;6.00;;;15.10;99.90;;;;;;5030812;28;20053;-85
2021/07/10 04:54:42;;;;;;;11.18;5.93;;;15.10;99.90;;;;;;5010237;28;20052;-84
2021/07/10 04:57:09;;;;;;;12.75;5.60;;;15.10;99.90;;;;;;5012280;28;20064;-85
2021/07/10 04:59:36;;;;;;;9.38;5.47;;;15.10;99.90;;;;;;5012927;28;20041;-85
2021/07/10 05:02:03;;;;;;;11.40;6.25;;;15.20;99.90;;;;;;4995191;28;20057;-85
2021/07/10 05:04:30;;;;;;;11.60;5.57;;;15.20;99.90;;;;;;5008196;28;20553;-85
2021/07/10 05:06:58;;;;;;;14.73;5.82;;;15.20;99.90;;;;;;5031327;28;20467;-85
2021/07/10 05:09:25;;;;;;;11.88;5.45;;;15.20;99.90;;;;;;5008081;28;20071;-85
2021/07/10 05:11:52;;;;;;;12.30;6.28;;;15.20;99.90;;;;;;5016227;28;20079;-85
2021/07/10 05:14:18;;;;;;;8.38;4.80;;;15.20;99.90;;;;;;5014621;28;20053;-85
2021/07/10 05:16:47;;;;;;;10.48;5.57;;;15.20;99.90;;;;;;5030503;28;20061;-85
2021/07/10 05:19:14;;;;;;;9.32;5.20;;;15.20;99.90;;;;;;5016859;28;20041;-84
2021/07/10 05:21:41;;;;;;;9.55;5.13;;;15.20;99.90;;;;;;5014690;28;20045;-85
2021/07/10 05:24:08;;;;;;;8.57;5.40;;;15.20;99.90;;;;;;5033380;28;20399;-85
2021/07/10 05:26:35;;;;;;;10.32;5.43;;;15.30;99.90;;;;;;5013406;28;20306;-84
2021/07/10 05:29:04;;;;;;;9.50;5.20;;;15.30;99.90;;;;;;5037592;28;20471;-84
2021/07/10 05:31:32;;;;;;;13.60;5.93;;;15.30;99.90;;;;;;5014203;28;20045;-85
2021/07/10 05:33:59;;;;;;;13.00;5.43;;;15.40;99.90;;;;;;5013497;28;20049;-85
2021/07/10 05:36:26;;;;;;;10.85;6.10;;;15.40;99.90;;;;;;5014695;28;20123;-85
2021/07/10 05:38:53;;;;;;;10.57;5.60;;;15.40;99.90;;;;;;5034501;28;20052;-85
2021/07/10 05:41:20;;;;;;;11.25;5.50;;;15.40;99.90;;;;;;5014490;28;20046;-85
2021/07/10 05:43:48;;;;;;;9.73;5.40;;;15.40;99.90;;;;;;5008464;28;20050;-85
2021/07/10 05:46:15;;;;;;;12.98;5.72;;;15.40;99.90;;;;;;5017668;28;20390;-85
2021/07/10 05:48:42;;;;;;;14.10;5.60;;;15.50;99.90;;;;;;5023375;28;20072;-84
2021/07/10 05:51:10;;;;;;;12.27;5.63;;;15.50;99.90;;;;;;5034754;28;20381;-85
2021/07/10 05:53:37;;;;;;;10.65;5.53;;;15.50;99.90;;;;;;5038337;28;20067;-85
2021/07/10 05:56:04;;;;;;;11.23;5.93;;;15.50;99.90;;;;;;5020637;28;20041;-85
2021/07/10 05:58:31;;;;;;;11.52;5.85;;;15.50;99.90;;;;;;5007720;28;20050;-85
2021/07/10 06:00:58;;;;;;;11.18;5.75;;;15.50;99.90;;;;;;5014902;28;20048;-85
2021/07/10 06:03:25;;;;;;;14.77;6.25;;;15.50;99.90;;;;;;5016293;28;20045;-85
2021/07/10 06:05:52;;;;;;;9.55;5.70;;;15.50;99.90;;;;;;5015216;28;20062;-85
2021/07/10 06:08:19;;;;;;;12.82;6.57;;;15.50;99.90;;;;;;5029221;28;20045;-85
2021/07/10 06:10:46;;;;;;;11.25;6.88;;;15.50;99.90;;;;;;5041706;28;20389;-85
2021/07/10 06:13:14;;;;;;;9.30;6.53;;;15.50;99.90;;;;;;5018536;28;20049;-85
2021/07/10 06:15:41;;;;;;;7.25;5.53;;;15.50;99.90;;;;;;5016212;28;20438;-85
2021/07/10 06:18:08;;;;;;;12.55;6.55;;;15.50;99.90;;;;;;5022854;28;20041;-85
2021/07/10 06:20:37;;;;;;;10.40;5.38;;;15.50;99.90;;;;;;5014252;28;20045;-84
2021/07/10 06:23:05;;;;;;;9.27;4.60;;;15.50;99.90;;;;;;5009517;28;20491;-84
2021/07/10 06:25:38;;;;;;;4.55;3.85;;;15.50;99.90;;;;;;5021381;28;20555;-84
2021/07/10 06:28:06;;;;;;;5.13;3.63;;;15.40;99.90;;;;;;5016661;28;20053;-84
2021/07/10 06:30:34;;;;;;;8.15;4.20;;;15.40;99.90;;;;;;5032229;28;20041;-84
2021/07/10 06:33:02;;;;;;;7.85;4.20;;;15.40;99.90;;;;;;5010333;28;20054;-84
2021/07/10 06:35:30;;;;;;;8.93;4.38;;;15.40;99.90;;;;;;5015263;28;20424;-85
2021/07/10 06:37:57;;;;;;;5.10;4.03;;;15.40;99.90;;;;;;5033737;28;20438;-84
2021/07/10 06:40:25;;;;;;;8.18;4.00;;;15.40;99.90;;;;;;5014137;28;20399;-84
2021/07/10 06:42:52;;;;;;;7.45;4.28;;;15.50;99.90;;;;;;5011385;28;20055;-84
2021/07/10 06:45:21;;;;;;;6.40;3.97;;;15.50;99.90;;;;;;5013553;28;20053;-84
2021/07/10 06:47:49;;;;;;;6.65;3.90;;;15.50;99.90;;;;;;5013697;28;20041;-84
2021/07/10 06:50:19;;;;;;;6.57;3.83;;;15.50;99.90;;;;;;5014809;28;20378;-84
2021/07/10 06:52:47;;;;;;;5.15;3.80;;;15.60;99.90;;;;;;5030482;28;20049;-84
2021/07/10 06:55:15;;;;;;;6.57;4.03;;;15.60;99.90;;;;;;5032583;28;20050;-84
2021/07/10 06:57:42;;;;;;;8.00;3.97;;;15.70;99.90;;;;;;5010057;28;20041;-85
2021/07/10 07:00:15;;;;;;;8.43;3.78;;;15.70;99.90;;;;;;5032210;28;20379;-84
2021/07/10 07:02:43;;;;;;;5.72;3.83;;;15.80;99.90;;;;;;5014928;28;20041;-84
2021/07/10 07:05:10;;;;;;;6.07;3.78;;;15.90;99.90;;;;;;5020396;28;20053;-84
2021/07/10 07:07:38;;;;;;;9.07;3.65;;;15.90;99.90;;;;;;5030532;28;20041;-84
2021/07/10 07:10:07;;;;;;;5.32;3.65;;;16.00;99.90;;;;;;5028941;28;20507;-84
2021/07/10 07:12:34;;;;;;;;;;;16.00;99.90;;;;;;5012280;28;20054;-84
2021/07/10 07:15:02;;;;;;;7.50;4.32;;;16.00;99.90;;;;;;5019719;28;20338;-84
2021/07/10 07:17:29;;;;;;;5.78;3.88;;;16.10;99.90;;;;;;5010991;28;20073;-84
2021/07/10 07:19:56;;;;;;;7.18;4.05;;;16.10;99.90;;;;;;5029291;28;20041;-84
2021/07/10 07:22:23;;;;;;;7.85;4.60;;;16.10;99.90;;;;;;5030081;28;20045;-84
2021/07/10 07:24:50;;;;;;;8.18;4.97;;;16.20;99.90;;;;;;5018376;28;20476;-84
2021/07/10 07:27:17;;;;;;;9.43;5.15;;;16.30;99.90;;;;;;5013350;28;20053;-84
2021/07/10 07:29:44;;;;;;;7.65;5.15;;;16.40;99.90;;;;;;5029808;28;20092;-84
2021/07/10 07:32:11;;;;;;;7.93;5.35;;;16.50;99.90;;;;;;5016374;28;20497;-83
2021/07/10 07:34:38;;;;;;;7.68;4.38;;;16.60;99.90;;;;;;5024560;28;20466;-84
2021/07/10 07:37:05;;;;;;;7.13;5.40;;;16.70;99.90;;;;;;5027067;28;20049;-84
2021/07/10 07:39:32;;;;;;;5.65;4.72;;;16.70;99.90;;;;;;5027061;28;20050;-84
2021/07/10 07:41:59;;;;;;;6.45;4.38;;;16.80;99.90;;;;;;5014279;28;20041;-84
2021/07/10 07:44:26;;;;;;;8.95;4.90;;;16.90;99.90;;;;;;5012489;28;20057;-84
2021/07/10 07:46:53;;;;;;;8.77;4.50;;;16.90;99.90;;;;;;5013734;28;20042;-84
2021/07/10 07:49:20;;;;;;;6.82;4.50;;;17.00;99.90;;;;;;5005983;28;20391;-83
2021/07/10 07:51:47;;;;;;;7.38;4.05;;;17.00;99.90;;;;;;5029903;28;20041;-84
2021/07/10 07:54:14;;;;;;;9.27;4.25;;;17.10;99.90;;;;;;5020768;28;20049;-84
2021/07/10 07:56:41;;;;;;;6.75;4.10;;;17.00;99.90;;;;;;5002246;28;20484;-84
2021/07/10 07:59:09;;;;;;;7.75;4.35;;;17.00;99.90;;;;;;5012677;28;20049;-84
2021/07/10 08:01:36;;;;;;;5.00;4.18;;;17.00;99.90;;;;;;5018744;28;20041;-84
2021/07/10 08:04:03;;;;;;;7.45;4.00;;;16.90;99.90;;;;;;5034014;28;20045;-84
2021/07/10 08:06:30;;;;;;;8.25;4.18;;;16.90;99.90;;;;;;5024465;28;20041;-84
2021/07/10 08:08:57;;;;;;;8.43;4.55;;;16.80;99.90;;;;;;5011868;28;20053;-85
2021/07/10 08:11:24;;;;;;;5.93;4.20;;;16.80;99.90;;;;;;5014698;28;20053;-85
2021/07/10 08:13:51;;;;;;;6.97;4.75;;;16.70;99.90;;;;;;5031685;28;20467;-85
2021/07/10 08:16:18;;;;;;;6.03;4.68;;;16.60;99.90;;;;;;5015416;28;20795;-85
2021/07/10 08:18:46;;;;;;;6.82;4.72;;;16.60;99.90;;;;;;5015597;28;20049;-84
2021/07/10 08:21:13;;;;;;;6.68;4.32;;;16.60;99.90;;;;;;5010487;28;20041;-85
2021/07/10 08:23:40;;;;;;;6.47;4.43;;;16.60;99.90;;;;;;5029058;28;20068;-85
2021/07/10 08:26:07;;;;;;;8.02;4.05;;;16.70;99.90;;;;;;5016305;28;20045;-85
2021/07/10 08:28:35;;;;;;;6.57;4.00;;;16.70;99.90;;;;;;5047104;28;20037;-84
2021/07/10 08:31:02;;;;;;;7.93;3.92;;;16.70;99.90;;;;;;5020491;28;20072;-85
2021/07/10 08:33:30;;;;;;;5.82;3.78;;;16.80;99.90;;;;;;5015966;28;20046;-85
2021/07/10 08:35:58;;;;;;;8.68;4.00;;;16.80;99.90;;;;;;5012470;28;20399;-84
2021/07/10 08:38:26;;;;;;;7.00;3.55;;;16.90;99.90;;;;;;5012375;28;20049;-85
2021/07/10 08:40:53;;;;;;;6.30;3.65;;;17.00;99.90;;;;;;5016543;28;20055;-85
2021/07/10 08:43:21;;;;;;;8.80;4.32;;;17.10;99.90;;;;;;5014909;28;20048;-84
2021/07/10 08:45:49;;;;;;;6.80;4.27;;;17.20;99.90;;;;;;5019863;28;20041;-85
2021/07/10 08:48:16;;;;;;;6.77;3.50;;;17.20;99.90;;;;;;5008628;28;20327;-85
2021/07/10 08:50:44;;;;;;;7.65;4.15;;;17.20;99.90;;;;;;5012512;28;20121;-85
2021/07/10 08:53:11;;;;;;;10.32;3.90;;;17.30;99.90;;;;;;5014797;28;20049;-85
2021/07/10 08:55:38;;;;;;;7.38;3.78;;;17.30;99.90;;;;;;5032239;28;20045;-85
2021/07/10 08:58:05;;;;;;;10.65;3.70;;;17.40;99.90;;;;;;5019953;28;20049;-85
2021/07/10 09:00:39;;;;;;;6.82;3.55;;;17.40;99.90;;;;;;5018890;28;20414;-85
2021/07/10 09:03:07;;;;;;;7.85;3.47;;;17.50;99.90;;;;;;5018424;28;20045;-85
2021/07/10 09:05:35;;;;;;;8.88;3.70;;;17.50;99.90;;;;;;5009956;28;20069;-85
2021/07/10 09:08:23;;;;;;;6.03;4.03;;;17.60;99.90;;;;;;5029218;28;20049;-85
2021/07/10 09:11:00;;;;;;;8.10;3.40;;;17.70;99.90;;;;;;5028656;28;20046;-84
2021/07/10 09:13:32;;;;;;;6.90;3.60;;;17.80;99.90;;;;;;5015878;28;20076;-85
2021/07/10 09:16:02;;;;;;;7.93;3.60;;;18.00;99.90;;;;;;5022486;28;20476;-85
2021/07/10 09:18:39;;;;;;;6.82;3.53;;;18.20;99.90;;;;;;5003321;28;20054;-85
2021/07/10 09:21:06;;;;;;;7.18;3.30;;;18.20;99.90;;;;;;5014407;28;20068;-85
2021/07/10 09:23:40;;;;;;;8.98;3.55;;;18.20;99.90;;;;;;5011529;28;20042;-85
2021/07/10 09:26:22;;;;;;;8.23;4.20;;;18.20;99.90;;;;;;5008430;28;20049;-85
2021/07/10 09:29:17;;;;;;;6.65;3.72;;;18.10;99.90;;;;;;5007599;28;20045;-85
2021/07/10 09:31:48;;;;;;;8.20;4.03;;;17.90;99.90;;;;;;5010158;28;20048;-85
2021/07/10 09:34:20;;;;;;;8.38;3.72;;;17.80;99.90;;;;;;5026756;28;20088;-85
2021/07/10 09:37:03;;;;;;;8.52;4.45;;;17.80;99.90;;;;;;5011328;28;20065;-85
2021/07/10 09:39:35;;;;;;;9.00;4.35;;;17.90;99.90;;;;;;5012015;28;20050;-85
2021/07/10 09:42:03;;;;;;;9.95;4.40;;;18.00;99.90;;;;;;5028839;28;20037;-85
2021/07/10 09:44:48;;;;;;;8.70;4.22;;;18.00;99.90;;;;;;5011597;28;20057;-85
2021/07/10 09:47:23;;;;;;;5.78;4.25;;;18.20;99.90;;;;;;5022373;28;20057;-84
2021/07/10 09:49:50;;;;;;;8.63;3.70;;;18.20;99.90;;;;;;5011984;28;20146;-85
2021/07/10 09:52:19;;;;;;;8.35;4.05;;;18.20;99.90;;;;;;5028024;28;20088;-84
2021/07/10 09:54:50;;;;;;;10.80;4.00;;;18.20;99.90;;;;;;5022484;28;20051;-85
2021/07/10 09:57:25;;;;;;;7.88;4.05;;;18.20;99.90;;;;;;5015903;28;20204;-85
2021/07/10 09:59:55;;;;;;;10.20;4.10;;;18.10;99.90;;;;;;5016082;28;20041;-84
2021/07/10 10:02:25;;;;;;;8.57;3.83;;;18.10;99.90;;;;;;5028327;28;20045;-85
2021/07/10 10:05:00;;;;;;;6.53;3.88;;;18.20;99.90;;;;;;5019912;28;20041;-85
2021/07/10 10:07:28;;;;;;;6.30;3.60;;;18.20;99.90;;;;;;5012230;28;20047;-85
2021/07/10 10:09:59;;;;;;;7.80;3.60;;;18.20;99.90;;;;;;5013704;28;20057;-85
2021/07/10 10:12:26;;;;;;;9.93;4.53;;;18.40;99.90;;;;;;5012394;28;20045;-85
2021/07/10 10:14:57;;;;;;;7.15;3.72;;;18.60;99.90;;;;;;5040467;28;20045;-85
2021/07/10 10:17:25;;;;;;;8.80;3.58;;;18.80;99.90;;;;;;5011531;28;20045;-85
2021/07/10 10:19:53;;;;;;;8.60;3.78;;;18.80;99.90;;;;;;5014970;28;20063;-85
2021/07/10 10:22:21;;;;;;;9.45;3.80;;;18.80;99.90;;;;;;5013064;28;20049;-85
2021/07/10 10:24:54;;;;;;;8.52;3.63;;;18.80;99.90;;;;;;5013780;28;20076;-84
2021/07/10 10:27:22;;;;;;;7.35;3.40;;;18.80;99.90;;;;;;5031746;28;20042;-85
2021/07/10 10:29:53;;;;;;;6.77;3.67;;;18.70;99.90;;;;;;5012397;28;20049;-85
2021/07/10 10:32:20;;;;;;;7.97;3.70;;;18.70;99.90;;;;;;5013259;28;20056;-85
2021/07/10 10:34:50;;;;;;;7.88;3.30;;;18.70;99.90;;;;;;5012747;28;20041;-85
2021/07/10 10:37:19;;;;;;;6.97;3.65;;;18.60;99.90;;;;;;5014572;28;20046;-85
2021/07/10 10:39:46;;;;;;;7.80;3.80;;;18.50;99.90;;;;;;5032014;28;20522;-85
2021/07/10 10:42:22;;;;;;;7.13;3.67;;;18.50;99.90;;;;;;5027847;28;20403;-85
2021/07/10 10:44:55;;;;;;;8.70;4.53;;;18.40;99.90;;;;;;5009612;28;20037;-84
2021/07/10 10:47:25;;;;;;;6.95;3.80;;;18.40;99.90;;;;;;5025697;28;20553;-85
2021/07/10 10:49:54;;;;;;;6.53;3.70;;;18.40;99.90;;;;;;5018390;28;20395;-85
2021/07/10 10:52:29;;;;;;;9.70;3.90;;;18.30;99.90;;;;;;5011581;28;20140;-85
2021/07/10 10:55:01;;;;;;;7.45;3.88;;;18.30;99.90;;;;;;5016802;28;20069;-85
2021/07/10 10:57:36;;;;;;;8.25;4.20;;;18.30;99.90;;;;;;5013061;28;20546;-85
2021/07/10 11:00:17;;;;;;;6.97;3.67;;;18.30;99.90;;;;;;5018892;28;20547;-85
2021/07/10 11:03:08;;;;;;;5.93;3.13;;;18.40;99.90;;;;;;4997790;28;20046;-85
2021/07/10 11:05:40;;;;;;;7.68;3.80;;;18.50;99.90;;;;;;5008185;28;20394;-85
2021/07/10 11:08:28;;;;;;;8.00;3.80;;;18.70;99.90;;;;;;5038803;28;20427;-85
2021/07/10 11:10:57;;;;;;;6.50;3.78;;;18.80;99.90;;;;;;5021791;28;20045;-85
2021/07/10 11:13:44;;;;;;;6.70;3.30;;;18.90;99.90;;;;;;5014923;28;20049;-85
2021/07/10 11:16:20;;;;;;;7.82;2.75;;;19.20;99.90;;;;;;5011925;28;20411;-85
2021/07/10 11:18:47;;;;;;;9.45;3.17;;;19.30;99.90;;;;;;5013977;28;20060;-85
2021/07/10 11:21:35;;;;;;;9.18;3.22;;;19.30;99.90;;;;;;5013575;28;20045;-86
2021/07/10 11:27:04;;;;;;;5.13;3.15;;;19.40;99.90;;;;;;5017248;28;20046;-85
2021/07/10 11:29:41;;;;;;;10.75;3.60;;;19.30;99.90;;;;;;5014356;28;20062;-86
2021/07/10 11:32:15;;;;;;;;;;;19.30;99.90;;;;;;5014463;28;22280;-86
2021/07/10 11:34:47;;;;;;;6.43;3.45;;;19.30;99.90;;;;;;5016600;28;19974;-86
2021/07/10 11:37:18;;;;;;;7.80;3.25;;;19.30;99.90;;;;;;5011322;28;20053;-85
2021/07/10 11:40:04;;;;;;;5.82;3.20;;;19.40;99.90;;;;;;5013630;28;21485;-85
2021/07/10 11:42:41;;;;;;;5.32;3.08;;;19.60;99.90;;;;;;5026953;28;20459;-86
2021/07/10 11:45:24;;;;;;;6.03;2.83;;;19.60;99.90;;;;;;5009635;28;20403;-86
2021/07/10 11:47:54;;;;;;;4.30;2.47;;;19.70;99.90;;;;;;5016431;28;20049;-85
2021/07/10 11:50:30;;;;;;;5.65;2.47;;;19.90;99.90;;;;;;5010896;28;20475;-86
2021/07/10 11:53:10;;;;;;;6.28;2.65;;;20.20;99.90;;;;;;5013266;28;20059;-86
2021/07/10 11:55:45;;;;;;;5.75;2.50;;;20.30;99.90;;;;;;5018083;28;20046;-86
2021/07/10 11:58:15;;;;;;;7.25;2.45;;;20.40;99.90;;;;;;5011192;28;20077;-86
2021/07/10 12:00:43;;;;;;;5.93;2.38;;;20.50;99.90;;;;;;5016833;28;20494;-86
2021/07/10 12:03:18;;;;;;;5.15;2.05;;;20.50;99.90;;;;;;5012718;28;20120;-85
2021/07/10 12:05:45;;;;;;;5.55;2.03;;;20.40;99.90;;;;;;5017008;28;20048;-86
2021/07/10 12:08:13;;;;;;;3.85;1.45;;;20.50;99.90;;;;;;5030529;28;20144;-85
2021/07/10 12:10:43;;;;;;;7.60;1.73;;;20.50;99.90;;;;;;5008352;28;20095;-85
2021/07/10 12:13:19;;;;;;;3.58;1.90;;;20.60;99.90;;;;;;5024715;28;20049;-86
2021/07/10 12:15:59;;;;;;;4.20;1.50;;;20.50;99.90;;;;;;5012232;28;20057;-86
2021/07/10 12:18:31;;;;;;;4.45;1.40;;;20.50;99.90;;;;;;5017242;28;20041;-86
2021/07/10 12:21:01;;;;;;;3.00;1.45;;;20.50;99.90;;;;;;5031460;28;20127;-86
2021/07/10 12:23:33;;;;;;;3.30;1.15;;;20.40;99.90;;;;;;5011954;28;20526;-86
2021/07/10 12:26:09;;;;;;;4.30;1.17;;;20.40;99.90;;;;;;5029261;28;20448;-85
2021/07/10 12:28:38;;;;;;;2.40;1.05;;;20.60;99.90;;;;;;5012035;28;20044;-85
2021/07/10 12:31:15;;;;;;;4.07;1.00;;;20.80;99.90;;;;;;5006956;28;20053;-86
2021/07/10 12:33:57;;;;;;;2.65;0.88;;;20.90;99.90;;;;;;5011349;28;20073;-85
2021/07/10 12:36:26;;;;;;;1.95;0.90;;;20.90;99.90;;;;;;5023338;28;21364;-85
2021/07/10 12:39:15;;;;;;;2.30;0.80;;;21.00;99.90;;;;;;5023057;28;20498;-86
2021/07/10 12:42:04;;;;;;;1.10;0.77;;;21.10;99.90;;;;;;5005473;28;20040;-86
2021/07/10 12:44:37;;;;;;;2.45;0.80;;;21.30;99.90;;;;;;5011856;28;20566;-85
2021/07/10 12:47:06;;;;;;;2.25;0.80;;;21.60;99.90;;;;;;5016590;28;20054;-86
2021/07/10 12:49:33;;;;;;;1.60;0.80;;;21.80;99.90;;;;;;5023659;28;20103;-86
2021/07/10 12:52:02;;;;;;;4.80;1.05;;;21.90;99.90;;;;;;5017964;28;20049;-85
2021/07/10 12:54:32;;;;;;;2.20;0.80;;;21.80;99.90;;;;;;5028925;28;20491;-86
2021/07/10 12:57:16;;;;;;;2.60;0.90;;;21.80;99.90;;;;;;5016934;28;20057;-86
2021/07/10 12:59:49;;;;;;;1.85;0.75;;;22.00;99.90;;;;;;5026960;28;20049;-85